Time;durP1;ratioP1;P1;durP2;ratioP2;P2;SDS_P1;SDS_P2;PMS_P1;PMS_P2;Temp;Humidity;BMP_temperature;BMP_pressure;BME280_temperature;BME280_humidity;BME280_pressure;Samples;Min_cycle;Max_cycle;Signal;HPM_P1;HPM_P2
2022/12/15 00:38:41;;;;;;;125.90;58.47;;;-1.30;69.20;;;;;;4909378;28;115262;-79
2022/12/15 00:41:13;;;;;;;132.43;61.10;;;-1.30;69.20;;;;;;4928062;28;115289;-78
2022/12/15 00:43:41;;;;;;;121.65;55.38;;;-1.20;69.30;;;;;;4911017;28;115074;-78
2022/12/15 00:48:54;;;;;;;132.23;58.80;;;-1.30;69.20;;;;;;4910323;28;115358;-79
2022/12/15 01:21:49;;;;;;;136.45;59.78;;;-1.40;69.30;;;;;;4909401;28;115351;-78
2022/12/15 01:24:16;;;;;;;127.45;58.40;;;-1.50;69.30;;;;;;4912010;28;118179;-78
2022/12/15 01:26:43;;;;;;;124.95;56.72;;;-1.40;69.40;;;;;;4915566;28;115483;-81
2022/12/15 01:29:11;;;;;;;134.77;58.30;;;-1.40;69.50;;;;;;4929208;28;114795;-78
2022/12/15 01:31:38;;;;;;;123.47;55.70;;;-1.40;69.60;;;;;;4911812;28;115259;-79
2022/12/15 01:34:05;;;;;;;129.25;58.10;;;-1.40;69.60;;;;;;4914585;28;116687;-79
2022/12/15 01:36:32;;;;;;;131.68;57.95;;;-1.40;69.60;;;;;;4918343;28;114505;-79
2022/12/15 01:39:00;;;;;;;132.20;60.47;;;-1.30;69.50;;;;;;4925467;28;114504;-79
2022/12/15 01:41:27;;;;;;;119.40;54.95;;;-1.30;69.60;;;;;;4928793;28;115455;-79
2022/12/15 01:44:13;;;;;;;129.00;57.33;;;-1.30;69.50;;;;;;4907524;28;114721;-79
2022/12/15 01:46:41;;;;;;;124.57;54.78;;;-1.30;69.50;;;;;;4909943;28;114668;-79
2022/12/15 01:49:15;;;;;;;123.22;53.42;;;-1.30;69.70;;;;;;4906872;28;115123;-79
2022/12/15 01:51:47;;;;;;;115.13;51.78;;;-1.30;69.80;;;;;;4889444;28;115175;-79
2022/12/15 01:54:23;;;;;;;119.78;55.05;;;-1.30;69.80;;;;;;4922648;28;114843;-78
2022/12/15 01:56:54;;;;;;;115.55;52.50;;;-1.30;70.00;;;;;;4906237;28;114578;-79
2022/12/15 01:59:27;;;;;;;130.73;54.03;;;-1.30;70.00;;;;;;4905577;28;115399;-79
2022/12/15 02:01:54;;;;;;;120.55;56.72;;;-1.30;70.00;;;;;;4904839;28;115375;-79
2022/12/15 02:04:22;;;;;;;125.88;58.63;;;-1.20;70.10;;;;;;4905985;28;115118;-79
2022/12/15 02:06:49;;;;;;;121.22;56.58;;;-1.20;70.00;;;;;;4920809;28;114701;-80
2022/12/15 02:09:16;;;;;;;133.73;60.63;;;-1.10;70.10;;;;;;4908309;28;114470;-79
2022/12/15 02:12:04;;;;;;;108.45;53.40;;;-1.10;70.10;;;;;;4906585;28;114881;-80
2022/12/15 02:15:10;;;;;;;116.45;51.85;;;-1.00;70.30;;;;;;4906416;28;115779;-80
2022/12/15 02:18:04;;;;;;;111.80;52.30;;;-1.00;70.20;;;;;;4921722;28;114446;-79
2022/12/15 02:21:16;;;;;;;113.13;49.03;;;-1.00;70.20;;;;;;4911565;28;114851;-79
2022/12/15 02:23:52;;;;;;;114.93;52.33;;;-1.00;70.20;;;;;;4904251;28;115898;-79
2022/12/15 02:26:44;;;;;;;114.85;54.03;;;-1.00;70.10;;;;;;4925057;28;115364;-80
2022/12/15 02:29:29;;;;;;;120.15;54.50;;;-1.00;70.20;;;;;;4926020;28;114852;-80
2022/12/15 02:32:13;;;;;;;110.45;51.38;;;-1.00;70.30;;;;;;4926082;28;114371;-80
2022/12/15 02:35:07;;;;;;;95.23;43.13;;;-1.00;70.20;;;;;;4906764;28;116350;-79
2022/12/15 02:37:37;;;;;;;91.35;44.50;;;-1.00;70.20;;;;;;4914287;28;114921;-79
2022/12/15 02:40:07;;;;;;;98.45;50.05;;;-1.00;70.30;;;;;;4906858;28;115796;-76
2022/12/15 02:42:52;;;;;;;102.70;49.17;;;-1.00;70.30;;;;;;4923595;28;114696;-77
2022/12/15 02:45:48;;;;;;;96.05;46.88;;;-0.90;70.30;;;;;;4918241;28;115098;-77
2022/12/15 02:48:40;;;;;;;89.47;42.45;;;-0.90;70.30;;;;;;4918852;28;115250;-77
2022/12/15 02:51:31;;;;;;;86.63;41.70;;;-0.90;70.30;;;;;;4920148;28;114665;-78
2022/12/15 02:54:36;;;;;;;93.75;43.42;;;-0.90;70.30;;;;;;4905299;28;114493;-78
2022/12/15 02:57:24;;;;;;;93.57;44.85;;;-0.80;70.30;;;;;;4915485;28;114854;-78
2022/12/15 03:00:06;;;;;;;90.45;43.72;;;-0.80;70.30;;;;;;4891393;28;117309;-77
2022/12/15 03:02:33;;;;;;;94.38;44.80;;;-0.80;70.40;;;;;;4889335;28;114528;-78
2022/12/15 03:05:00;;;;;;;91.78;43.90;;;-0.80;70.30;;;;;;4920882;28;114496;-78
2022/12/15 03:07:28;;;;;;;80.80;40.58;;;-0.80;70.30;;;;;;4902362;28;115167;-78
2022/12/15 03:09:56;;;;;;;90.90;42.85;;;-0.80;70.30;;;;;;4919751;28;115080;-77
2022/12/15 03:12:23;;;;;;;80.18;40.70;;;-0.80;70.40;;;;;;4891223;28;115425;-78
2022/12/15 03:14:50;;;;;;;84.10;42.22;;;-0.80;70.40;;;;;;4925652;28;114700;-77
2022/12/15 03:17:17;;;;;;;90.03;43.60;;;-0.70;70.40;;;;;;4891268;28;115019;-78
2022/12/15 03:19:44;;;;;;;90.80;46.72;;;-0.70;70.40;;;;;;4923026;28;114611;-77
2022/12/15 03:22:15;;;;;;;94.72;45.65;;;-0.60;70.40;;;;;;4907630;28;114537;-77
2022/12/15 03:24:42;;;;;;;92.45;45.85;;;-0.60;70.40;;;;;;4919191;28;114428;-77
2022/12/15 03:27:09;;;;;;;90.88;44.53;;;-0.60;70.40;;;;;;4905437;28;115422;-76
2022/12/15 03:29:37;;;;;;;88.78;45.15;;;-0.60;70.30;;;;;;4919721;28;114859;-76
2022/12/15 03:32:04;;;;;;;103.10;50.40;;;-0.60;70.30;;;;;;4917449;28;115444;-77
2022/12/15 03:34:32;;;;;;;95.50;47.25;;;-0.60;70.10;;;;;;4907121;28;114471;-77
2022/12/15 03:36:59;;;;;;;95.95;44.88;;;-0.60;70.10;;;;;;4905439;28;115791;-77
2022/12/15 03:39:27;;;;;;;91.25;43.30;;;-0.60;70.10;;;;;;4905894;28;114783;-78
2022/12/15 03:41:54;;;;;;;82.78;40.67;;;-0.70;70.10;;;;;;4908316;28;114499;-78
2022/12/15 03:44:21;;;;;;;89.75;41.00;;;-0.60;70.20;;;;;;4906769;28;114393;-78
2022/12/15 03:46:48;;;;;;;84.35;41.05;;;-0.60;70.20;;;;;;4905848;28;115053;-78
2022/12/15 03:49:15;;;;;;;83.03;42.10;;;-0.60;70.20;;;;;;4905507;28;114671;-77
2022/12/15 03:51:43;;;;;;;72.20;37.05;;;-0.60;70.20;;;;;;4905278;28;114731;-78
2022/12/15 03:54:12;;;;;;;87.63;40.95;;;-0.60;70.20;;;;;;4920363;28;114760;-77
2022/12/15 03:56:39;;;;;;;88.25;41.95;;;-0.70;70.10;;;;;;4886123;28;115040;-78
2022/12/15 03:59:07;;;;;;;81.38;41.45;;;-0.80;70.10;;;;;;4905493;28;115584;-78
2022/12/15 04:01:35;;;;;;;86.65;41.97;;;-0.80;70.30;;;;;;4920097;28;114766;-77
2022/12/15 04:04:03;;;;;;;89.60;41.22;;;-0.70;70.40;;;;;;4917926;28;115984;-77
2022/12/15 04:06:30;;;;;;;82.05;39.47;;;-0.70;70.50;;;;;;4905305;28;116071;-77
2022/12/15 04:08:57;;;;;;;80.25;38.30;;;-0.70;70.50;;;;;;4924351;28;114550;-77
2022/12/15 04:11:24;;;;;;;90.40;40.95;;;-0.70;70.50;;;;;;4916682;28;114654;-77
2022/12/15 04:13:51;;;;;;;79.88;39.33;;;-0.60;70.60;;;;;;4923911;28;114616;-77
2022/12/15 04:16:19;;;;;;;84.85;40.53;;;-0.60;70.60;;;;;;4889975;28;116808;-77
2022/12/15 04:20:07;;;;;;;83.72;41.80;;;-0.60;70.60;;;;;;4905684;28;114613;-77
2022/12/15 04:21:34;;;;;;;89.68;41.80;;;-0.60;70.60;;;;;;4919387;28;114922;-78
2022/12/15 05:33:14;;;;;;;90.53;41.75;;;-0.50;71.00;;;;;;4916604;28;115183;-78
2022/12/15 05:35:41;;;;;;;80.85;40.50;;;-0.60;71.10;;;;;;4926877;28;116216;-79
2022/12/15 05:38:08;;;;;;;80.22;41.40;;;-0.50;71.20;;;;;;4916197;28;114412;-77
2022/12/15 05:40:36;;;;;;;82.97;40.50;;;-0.50;71.20;;;;;;4908919;28;114798;-78
2022/12/15 05:43:03;;;;;;;85.47;38.38;;;-0.50;71.20;;;;;;4908019;28;115030;-78
2022/12/15 05:45:30;;;;;;;82.15;38.92;;;-0.40;71.20;;;;;;4926273;28;114656;-78
2022/12/15 05:47:57;;;;;;;88.13;38.70;;;-0.40;71.20;;;;;;4927021;28;114538;-78
2022/12/15 05:50:24;;;;;;;84.38;38.80;;;-0.40;71.20;;;;;;4928084;28;114422;-79
2022/12/15 05:52:52;;;;;;;76.30;34.78;;;-0.40;71.20;;;;;;4930166;28;114983;-78
2022/12/15 05:55:19;;;;;;;82.28;38.70;;;-0.40;71.20;;;;;;4908379;28;115091;-78
2022/12/15 05:57:53;;;;;;;84.22;37.75;;;-0.40;71.30;;;;;;4925455;28;114502;-79
2022/12/15 06:00:20;;;;;;;77.68;36.63;;;-0.30;71.40;;;;;;4913326;28;115284;-78
2022/12/15 06:02:48;;;;;;;81.15;36.95;;;-0.40;71.30;;;;;;4908642;28;115052;-78
2022/12/15 06:05:17;;;;;;;78.68;37.58;;;-0.40;71.30;;;;;;4913189;28;114986;-79
2022/12/15 06:07:44;;;;;;;82.43;39.30;;;-0.30;71.20;;;;;;4913659;28;114655;-79
2022/12/15 06:10:11;;;;;;;89.72;41.40;;;-0.40;71.20;;;;;;4910941;28;115093;-80
2022/12/15 06:12:41;;;;;;;87.30;39.80;;;-0.40;71.30;;;;;;4906381;28;116919;-79
2022/12/15 06:15:08;;;;;;;74.15;36.15;;;-0.30;71.40;;;;;;4912345;28;114695;-79
2022/12/15 06:17:36;;;;;;;79.93;39.13;;;-0.30;71.40;;;;;;4913430;28;114679;-79
2022/12/15 06:20:09;;;;;;;86.10;40.20;;;-0.30;71.40;;;;;;4908915;28;115753;-79
2022/12/15 06:22:38;;;;;;;79.95;39.13;;;-0.40;71.40;;;;;;4907009;28;115424;-79
2022/12/15 06:25:06;;;;;;;80.05;38.08;;;-0.30;71.40;;;;;;4913634;28;115248;-80
2022/12/15 06:27:35;;;;;;;85.13;40.60;;;-0.30;71.40;;;;;;4912920;28;114358;-78
2022/12/15 06:30:03;;;;;;;75.78;37.40;;;-0.30;71.40;;;;;;4910291;28;115264;-79
2022/12/15 06:32:35;;;;;;;82.43;37.92;;;-0.30;71.40;;;;;;4912845;28;115002;-78
2022/12/15 06:35:02;;;;;;;80.35;35.60;;;-0.30;71.30;;;;;;4927731;28;115851;-78
2022/12/15 06:37:29;;;;;;;76.53;36.38;;;-0.30;71.30;;;;;;4912181;28;114457;-77
2022/12/15 06:39:56;;;;;;;83.20;38.58;;;-0.40;71.40;;;;;;4914158;28;114503;-78
2022/12/15 06:42:23;;;;;;;82.75;38.15;;;-0.30;71.50;;;;;;4895723;28;116493;-78
2022/12/15 06:44:51;;;;;;;77.43;37.35;;;-0.30;71.50;;;;;;4917190;28;117112;-78
2022/12/15 06:47:18;;;;;;;81.05;38.65;;;-0.30;71.60;;;;;;4914462;28;115326;-79
2022/12/15 06:49:45;;;;;;;77.50;36.28;;;-0.30;71.60;;;;;;4912227;28;114684;-78
2022/12/15 06:52:12;;;;;;;86.10;38.83;;;-0.30;71.50;;;;;;4915887;28;115175;-78
2022/12/15 06:54:39;;;;;;;89.07;39.05;;;-0.20;71.60;;;;;;4921283;28;114981;-78
2022/12/15 06:57:07;;;;;;;84.25;38.63;;;-0.20;71.60;;;;;;4914189;28;114946;-78
2022/12/15 06:59:34;;;;;;;78.38;36.83;;;-0.20;71.60;;;;;;4912837;28;114717;-78
2022/12/15 07:02:01;;;;;;;81.75;37.40;;;-0.30;71.60;;;;;;4907096;28;115245;-79
2022/12/15 07:04:31;;;;;;;88.28;37.53;;;-0.20;71.70;;;;;;4936648;28;114660;-78
2022/12/15 07:06:58;;;;;;;85.18;37.53;;;-0.20;71.70;;;;;;4907803;28;115893;-79
2022/12/15 07:09:26;;;;;;;84.25;37.28;;;-0.20;71.70;;;;;;4907157;28;114664;-78
2022/12/15 07:11:53;;;;;;;76.05;36.67;;;-0.20;71.70;;;;;;4905269;28;115162;-78
2022/12/15 07:14:21;;;;;;;87.97;36.33;;;-0.20;71.80;;;;;;4920969;28;114871;-78
2022/12/15 07:16:49;;;;;;;75.95;36.47;;;-0.10;71.70;;;;;;4925235;28;114657;-79
2022/12/15 07:19:16;;;;;;;88.32;38.50;;;-0.10;71.70;;;;;;4942163;28;114528;-78
2022/12/15 07:21:44;;;;;;;81.53;38.17;;;-0.10;71.70;;;;;;4925324;28;116887;-78
2022/12/15 07:24:11;;;;;;;85.15;37.83;;;-0.10;71.60;;;;;;4909688;28;114693;-78
2022/12/15 07:26:39;;;;;;;85.70;37.25;;;-0.10;71.60;;;;;;4923363;28;114703;-78
2022/12/15 07:29:06;;;;;;;83.15;35.67;;;0.00;71.60;;;;;;4907454;28;114471;-78
2022/12/15 07:31:34;;;;;;;78.60;36.90;;;0.00;71.60;;;;;;4905255;28;115313;-78
2022/12/15 07:34:01;;;;;;;84.65;38.45;;;-0.10;71.60;;;;;;4919523;28;114668;-78
2022/12/15 07:36:28;;;;;;;87.32;39.53;;;-0.10;71.60;;;;;;4920664;28;114610;-78
2022/12/15 07:38:59;;;;;;;83.80;38.88;;;-0.10;71.70;;;;;;4917540;28;114639;-77
2022/12/15 07:41:27;;;;;;;80.43;38.15;;;0.00;71.70;;;;;;4903733;28;115702;-78
2022/12/15 07:43:54;;;;;;;83.88;38.03;;;0.00;71.70;;;;;;4905690;28;114620;-78
2022/12/15 07:46:22;;;;;;;89.07;38.70;;;0.00;71.70;;;;;;4918917;28;114653;-78
2022/12/15 07:48:50;;;;;;;80.43;39.08;;;0.00;71.70;;;;;;4904269;28;114617;-79
2022/12/15 07:51:18;;;;;;;85.32;37.55;;;0.00;71.70;;;;;;4904895;28;115068;-79
2022/12/15 07:53:48;;;;;;;89.95;37.35;;;0.00;71.80;;;;;;4916690;28;114717;-78
2022/12/15 07:56:19;;;;;;;78.43;34.97;;;0.00;71.80;;;;;;4905941;28;114577;-78
2022/12/15 07:58:46;;;;;;;83.63;35.95;;;0.00;71.80;;;;;;4917731;28;114916;-78
2022/12/15 08:01:14;;;;;;;89.97;37.95;;;0.10;71.80;;;;;;4923408;28;115122;-79
2022/12/15 08:03:41;;;;;;;80.32;35.08;;;0.10;71.80;;;;;;4904603;28;114674;-78
2022/12/15 08:06:11;;;;;;;81.10;35.92;;;0.10;71.80;;;;;;4924331;28;114529;-78
2022/12/15 08:08:40;;;;;;;86.93;37.75;;;0.10;71.80;;;;;;4907135;28;114455;-77
2022/12/15 08:11:09;;;;;;;83.55;36.85;;;0.10;71.80;;;;;;4906099;28;115062;-77
2022/12/15 08:13:37;;;;;;;82.68;37.67;;;0.20;71.70;;;;;;4918811;28;114721;-79
2022/12/15 08:16:24;;;;;;;82.88;37.20;;;0.10;71.70;;;;;;4919246;28;116389;-78
2022/12/15 08:18:51;;;;;;;70.55;35.38;;;0.20;71.70;;;;;;4918478;28;115071;-78
2022/12/15 08:21:21;;;;;;;87.45;37.28;;;0.20;71.70;;;;;;4902816;28;118308;-79
2022/12/15 08:23:48;;;;;;;89.72;37.17;;;0.20;71.70;;;;;;4914115;28;115623;-79
2022/12/15 08:26:16;;;;;;;79.38;35.50;;;0.20;71.60;;;;;;4905405;28;114584;-79
2022/12/15 08:28:44;;;;;;;90.40;38.08;;;0.20;71.70;;;;;;4911418;28;114758;-77
2022/12/15 08:31:18;;;;;;;84.82;37.05;;;0.20;71.70;;;;;;4910318;28;115584;-79
2022/12/15 08:33:45;;;;;;;87.18;37.78;;;0.20;71.70;;;;;;4916662;28;118923;-78
2022/12/15 08:36:14;;;;;;;93.93;38.88;;;0.20;71.70;;;;;;4911538;28;114464;-78
2022/12/15 08:38:42;;;;;;;88.30;38.00;;;0.20;71.60;;;;;;4911323;28;114681;-78
2022/12/15 08:41:40;;;;;;;89.07;39.17;;;0.20;71.60;;;;;;4889807;28;115901;-79
2022/12/15 08:44:07;;;;;;;102.45;39.33;;;0.20;71.70;;;;;;4916549;28;114688;-79
2022/12/15 08:46:34;;;;;;;90.72;38.90;;;0.10;71.70;;;;;;4913838;28;114576;-79
2022/12/15 08:49:02;;;;;;;87.20;37.67;;;0.10;71.70;;;;;;4912431;28;114581;-78
2022/12/15 08:51:30;;;;;;;85.00;36.05;;;0.10;71.70;;;;;;4907333;28;116235;-78
2022/12/15 08:53:58;;;;;;;85.93;37.67;;;0.00;71.70;;;;;;4899442;28;116581;-78
2022/12/15 08:56:26;;;;;;;88.35;38.42;;;0.00;71.70;;;;;;4919950;28;115047;-78
2022/12/15 08:58:58;;;;;;;92.97;37.85;;;0.00;71.70;;;;;;4926078;28;114569;-78
2022/12/15 09:01:27;;;;;;;95.63;38.05;;;0.00;71.50;;;;;;4912111;28;116290;-78
2022/12/15 09:03:55;;;;;;;88.55;37.97;;;-0.10;71.40;;;;;;4906990;28;116717;-78
2022/12/15 09:06:28;;;;;;;83.32;36.30;;;-0.10;71.30;;;;;;4925142;28;115988;-78
2022/12/15 09:09:00;;;;;;;85.40;37.42;;;-0.20;71.50;;;;;;4920011;28;114520;-78
2022/12/15 09:11:28;;;;;;;93.78;38.70;;;-0.20;71.50;;;;;;4922362;28;115432;-78
2022/12/15 09:13:56;;;;;;;87.97;36.80;;;-0.20;71.60;;;;;;4921921;28;114743;-78
2022/12/15 09:16:23;;;;;;;81.82;35.95;;;-0.20;71.60;;;;;;4921270;28;114411;-78
2022/12/15 09:18:53;;;;;;;78.82;35.65;;;-0.20;71.50;;;;;;4924958;28;114586;-78
2022/12/15 09:21:22;;;;;;;82.22;35.05;;;-0.20;71.40;;;;;;4908125;28;115039;-78
2022/12/15 09:23:50;;;;;;;88.00;36.17;;;-0.10;71.50;;;;;;4922061;28;114636;-78
2022/12/15 09:26:19;;;;;;;77.45;32.80;;;-0.20;71.50;;;;;;4917540;28;114487;-78
2022/12/15 09:28:47;;;;;;;77.15;35.45;;;-0.20;71.40;;;;;;4915244;28;115627;-77
2022/12/15 09:31:21;;;;;;;79.78;34.40;;;-0.20;71.40;;;;;;4922606;28;115208;-77
2022/12/15 09:33:51;;;;;;;76.50;35.65;;;-0.20;71.40;;;;;;4908882;28;114498;-77
2022/12/15 09:36:19;;;;;;;81.85;35.78;;;-0.20;71.20;;;;;;4911269;28;114722;-77
2022/12/15 09:38:46;;;;;;;84.32;36.35;;;-0.20;71.20;;;;;;4922738;28;114542;-77
2022/12/15 09:41:13;;;;;;;74.65;33.95;;;-0.20;71.20;;;;;;4907027;28;116172;-77
2022/12/15 09:44:05;;;;;;;71.63;32.35;;;-0.30;71.10;;;;;;4907509;28;115076;-77
2022/12/15 09:47:27;;;;;;;80.25;35.50;;;-0.30;71.20;;;;;;4920374;28;114694;-77
2022/12/15 09:49:59;;;;;;;81.93;34.40;;;-0.30;71.20;;;;;;4908645;28;114829;-77
2022/12/15 09:52:49;;;;;;;88.15;35.40;;;-0.30;71.30;;;;;;4906074;28;115812;-77
2022/12/15 09:55:31;;;;;;;87.63;39.35;;;-0.30;71.20;;;;;;4925020;28;115063;-77
2022/12/15 09:58:28;;;;;;;83.97;37.58;;;-0.30;71.20;;;;;;4933181;28;114373;-77
2022/12/15 10:01:26;;;;;;;93.88;40.10;;;-0.20;71.20;;;;;;4909018;28;114844;-77
2022/12/15 10:04:05;;;;;;;83.72;34.85;;;-0.20;71.10;;;;;;4909026;28;118211;-77
2022/12/15 10:06:41;;;;;;;83.43;38.47;;;-0.20;71.00;;;;;;4924916;28;114610;-77
2022/12/15 10:09:29;;;;;;;95.85;39.60;;;-0.20;71.00;;;;;;4909566;28;114409;-77
2022/12/15 10:12:12;;;;;;;100.32;38.50;;;-0.20;71.00;;;;;;4907820;28;114633;-77
2022/12/15 10:14:48;;;;;;;88.65;40.15;;;-0.20;71.00;;;;;;4906825;28;115125;-77
2022/12/15 10:17:31;;;;;;;94.22;40.35;;;-0.20;71.00;;;;;;4922519;28;114690;-77
2022/12/15 10:20:23;;;;;;;95.28;38.88;;;-0.30;70.80;;;;;;4892460;28;114492;-77
2022/12/15 10:22:50;;;;;;;89.47;36.70;;;-0.30;70.90;;;;;;4910181;28;114559;-77
2022/12/15 10:25:22;;;;;;;80.57;35.53;;;-0.30;71.20;;;;;;4920554;28;115190;-78
2022/12/15 10:28:14;;;;;;;87.70;34.50;;;-0.40;71.20;;;;;;4916130;28;114648;-79
2022/12/15 10:31:40;;;;;;;86.28;35.38;;;-0.30;71.40;;;;;;4907127;28;114387;-77
2022/12/15 10:34:31;;;;;;;96.10;37.00;;;-0.40;71.50;;;;;;4906115;28;114843;-78
2022/12/15 10:37:19;;;;;;;92.03;35.85;;;-0.30;71.50;;;;;;4894198;28;115917;-78
2022/12/15 10:39:48;;;;;;;89.90;36.67;;;-0.30;71.30;;;;;;4889990;28;115840;-78
2022/12/15 10:42:23;;;;;;;99.22;36.55;;;-0.10;71.10;;;;;;4909444;28;114522;-78
2022/12/15 10:44:55;;;;;;;94.30;36.08;;;-0.20;71.00;;;;;;4910355;28;114803;-78
2022/12/15 10:47:25;;;;;;;95.35;38.33;;;-0.20;71.10;;;;;;4911426;28;115019;-77
2022/12/15 10:49:53;;;;;;;91.57;39.45;;;-0.20;71.10;;;;;;4908284;28;116018;-78
2022/12/15 10:52:26;;;;;;;94.88;36.67;;;0.00;71.10;;;;;;4915613;28;114644;-78
2022/12/15 10:54:54;;;;;;;99.13;39.72;;;0.00;70.90;;;;;;4919521;28;114825;-80
2022/12/15 10:57:32;;;;;;;91.05;36.40;;;-0.10;70.80;;;;;;4894763;28;115636;-78
2022/12/15 11:00:30;;;;;;;84.30;35.85;;;0.00;70.80;;;;;;4890136;28;115016;-78
2022/12/15 11:02:57;;;;;;;104.75;38.88;;;0.00;70.80;;;;;;4912762;28;114619;-79
2022/12/15 11:05:25;;;;;;;95.40;37.72;;;0.10;70.70;;;;;;4927761;28;114467;-79
2022/12/15 11:08:15;;;;;;;93.85;36.85;;;0.10;70.70;;;;;;4915574;28;115506;-78
2022/12/15 11:14:12;;;;;;;92.30;36.25;;;0.10;70.50;;;;;;4879358;28;114730;-78
2022/12/15 11:16:57;;;;;;;95.82;39.97;;;0.10;70.60;;;;;;4889882;28;114423;-78
2022/12/15 11:19:41;;;;;;;87.20;37.17;;;0.00;70.70;;;;;;4884797;28;115481;-78
2022/12/15 11:22:44;;;;;;;90.85;38.03;;;0.00;70.80;;;;;;4857337;28;117636;-79
2022/12/15 11:25:38;;;;;;;91.68;37.42;;;0.10;70.70;;;;;;4869605;28;114846;-79
2022/12/15 11:28:13;;;;;;;101.68;40.83;;;0.10;70.50;;;;;;4870633;28;114724;-79
2022/12/15 11:30:49;;;;;;;91.00;37.50;;;0.00;70.50;;;;;;4870270;28;115144;-79
2022/12/15 11:33:16;;;;;;;100.22;42.13;;;0.00;70.90;;;;;;4867970;28;115194;-79
2022/12/15 11:35:55;;;;;;;103.68;42.17;;;0.00;71.10;;;;;;4870108;28;114416;-78
2022/12/15 11:38:25;;;;;;;104.25;42.97;;;0.10;71.00;;;;;;4885967;28;114677;-78
2022/12/15 11:40:53;;;;;;;105.20;41.67;;;0.10;70.80;;;;;;4872077;28;117429;-79
2022/12/15 11:43:35;;;;;;;106.32;43.45;;;0.20;70.70;;;;;;4911676;28;114805;-78
2022/12/15 11:46:23;;;;;;;119.38;44.95;;;0.20;70.60;;;;;;4884987;28;114821;-79
2022/12/15 11:49:24;;;;;;;117.40;44.28;;;0.20;70.60;;;;;;4943937;28;114534;-79
2022/12/15 11:52:00;;;;;;;104.55;41.78;;;0.10;70.60;;;;;;4930558;28;115249;-78
2022/12/15 11:54:54;;;;;;;113.15;39.83;;;0.10;70.90;;;;;;4926612;28;114705;-78
2022/12/15 11:57:30;;;;;;;92.22;37.47;;;0.10;71.00;;;;;;4940921;28;114442;-78
2022/12/15 12:00:20;;;;;;;98.53;40.55;;;0.10;70.90;;;;;;4932895;28;114636;-78
2022/12/15 12:03:01;;;;;;;100.07;42.03;;;0.20;70.90;;;;;;4918485;28;115124;-78
2022/12/15 12:06:01;;;;;;;103.85;41.47;;;0.20;70.90;;;;;;4923907;28;116663;-78
2022/12/15 12:09:13;;;;;;;110.63;44.80;;;0.20;71.00;;;;;;4926236;28;114441;-79
2022/12/15 12:11:52;;;;;;;113.32;44.55;;;0.20;70.90;;;;;;4936717;28;114656;-78
2022/12/15 12:14:40;;;;;;;111.57;42.60;;;0.20;70.80;;;;;;4925557;28;115313;-79
2022/12/15 12:17:12;;;;;;;128.80;47.92;;;0.20;71.00;;;;;;4936799;28;114717;-79
2022/12/15 12:19:47;;;;;;;130.65;49.13;;;0.20;71.00;;;;;;4925108;28;114391;-77
2022/12/15 12:22:24;;;;;;;120.15;47.58;;;0.30;70.90;;;;;;4945019;28;114699;-77
2022/12/15 12:25:19;;;;;;;128.10;50.47;;;0.20;70.90;;;;;;4924065;28;115125;-77
2022/12/15 12:28:20;;;;;;;122.28;44.83;;;0.10;71.20;;;;;;4919752;28;115228;-78
2022/12/15 12:30:48;;;;;;;124.15;46.65;;;0.10;71.40;;;;;;4932401;28;114534;-78
2022/12/15 12:33:37;;;;;;;123.10;46.63;;;0.10;71.30;;;;;;4945717;28;114493;-78
2022/12/15 12:36:12;;;;;;;110.88;43.42;;;0.10;71.40;;;;;;4925573;28;115218;-78
2022/12/15 12:38:55;;;;;;;117.18;45.42;;;0.10;71.30;;;;;;4933942;28;115090;-78
2022/12/15 12:42:36;;;;;;;126.68;47.95;;;0.10;71.30;;;;;;4926224;28;114387;-78
2022/12/15 12:45:04;;;;;;;126.03;48.28;;;0.10;71.40;;;;;;4865462;28;114719;-79
2022/12/15 12:47:34;;;;;;;129.73;49.83;;;0.10;71.50;;;;;;4914503;28;115302;-79
2022/12/15 12:50:26;;;;;;;158.13;54.83;;;0.20;71.50;;;;;;4932534;28;115650;-78
2022/12/15 12:52:56;;;;;;;128.73;52.70;;;0.20;71.40;;;;;;4930522;28;115218;-79
2022/12/15 12:55:34;;;;;;;122.57;48.97;;;0.20;71.40;;;;;;4937599;28;115592;-79
2022/12/15 12:58:02;;;;;;;135.32;48.10;;;0.20;71.40;;;;;;4923973;28;116223;-79
2022/12/15 13:00:34;;;;;;;130.75;49.78;;;0.20;71.40;;;;;;4925331;28;114580;-79
2022/12/15 13:03:19;;;;;;;112.68;47.85;;;0.30;71.30;;;;;;4941811;28;114632;-79
2022/12/15 13:05:48;;;;;;;;;;;0.20;71.20;;;;;;4931293;28;114802;-79
2022/12/15 13:08:50;;;;;;;116.93;41.30;;;0.20;71.00;;;;;;4925232;28;115598;-79
2022/12/15 13:11:49;;;;;;;109.93;40.95;;;0.10;71.20;;;;;;4931079;28;115037;-78
2022/12/15 13:14:39;;;;;;;121.38;42.90;;;0.10;71.40;;;;;;4939533;28;114479;-78
2022/12/15 13:17:29;;;;;;;117.88;43.40;;;0.10;71.50;;;;;;4924927;28;117341;-79
2022/12/15 13:20:00;;;;;;;129.43;48.28;;;0.10;71.50;;;;;;4924465;28;115749;-78
2022/12/15 13:22:35;;;;;;;122.32;46.70;;;0.20;71.50;;;;;;4930985;28;114719;-79
2022/12/15 13:25:23;;;;;;;131.02;51.35;;;0.10;71.50;;;;;;4916022;28;115750;-79
2022/12/15 13:27:51;;;;;;;110.38;43.88;;;0.20;71.50;;;;;;4945537;28;115374;-79
2022/12/15 13:30:20;;;;;;;107.63;44.65;;;0.10;71.50;;;;;;4923285;28;115200;-78
2022/12/15 13:32:52;;;;;;;124.70;44.13;;;0.20;71.50;;;;;;4934499;28;115876;-78
2022/12/15 13:35:33;;;;;;;118.20;48.25;;;0.20;71.50;;;;;;4939349;28;114461;-78
2022/12/15 13:38:07;;;;;;;126.50;47.63;;;0.20;71.60;;;;;;4945170;28;114238;-78
2022/12/15 13:40:34;;;;;;;132.23;48.28;;;0.20;71.60;;;;;;4927200;28;116760;-79
2022/12/15 13:43:04;;;;;;;121.55;46.85;;;0.20;71.60;;;;;;4932061;28;114746;-79
2022/12/15 13:45:36;;;;;;;127.45;46.42;;;0.20;71.60;;;;;;4927412;28;114410;-78
2022/12/15 13:48:36;;;;;;;116.65;43.97;;;0.20;71.30;;;;;;4928386;28;114523;-79
2022/12/15 13:51:37;;;;;;;119.72;44.05;;;0.20;71.60;;;;;;4937046;28;115071;-78
2022/12/15 13:54:07;;;;;;;120.13;44.20;;;0.20;71.70;;;;;;4941977;28;116688;-78
2022/12/15 13:57:02;;;;;;;125.97;43.42;;;0.10;71.60;;;;;;4928257;28;116317;-78
2022/12/15 13:59:46;;;;;;;113.45;41.38;;;0.20;71.50;;;;;;4928226;28;114384;-78
2022/12/15 14:02:35;;;;;;;118.35;46.10;;;0.30;71.40;;;;;;4927716;28;115105;-78
2022/12/15 14:05:16;;;;;;;104.45;40.47;;;0.30;71.30;;;;;;4926458;28;114584;-78
2022/12/15 14:07:55;;;;;;;115.43;41.78;;;0.20;71.30;;;;;;4916858;28;114610;-79
2022/12/15 14:10:35;;;;;;;106.70;41.35;;;0.10;71.30;;;;;;4935370;28;115136;-78
2022/12/15 14:13:28;;;;;;;116.30;43.85;;;0.20;71.40;;;;;;4933542;28;115534;-79
2022/12/15 14:15:59;;;;;;;117.80;45.75;;;0.10;71.70;;;;;;4915534;28;114731;-79
2022/12/15 14:18:37;;;;;;;107.45;41.63;;;0.10;71.70;;;;;;4920377;28;114668;-79
2022/12/15 14:21:29;;;;;;;116.55;45.15;;;0.10;71.80;;;;;;4931544;28;114674;-79
2022/12/15 14:24:00;;;;;;;112.05;44.78;;;0.10;71.90;;;;;;4914496;28;115217;-79
2022/12/15 14:26:47;;;;;;;112.18;41.92;;;0.00;71.90;;;;;;4927899;28;114726;-78
2022/12/15 14:29:16;;;;;;;115.22;42.90;;;0.10;71.70;;;;;;4928370;28;114301;-78
2022/12/15 14:31:49;;;;;;;116.70;43.78;;;0.10;71.60;;;;;;4941521;28;115078;-77
2022/12/15 14:34:24;;;;;;;96.10;39.55;;;0.00;71.60;;;;;;4936753;28;115604;-78
2022/12/15 14:36:53;;;;;;;131.43;51.28;;;-0.10;71.60;;;;;;4925033;28;115423;-79
2022/12/15 14:39:34;;;;;;;126.88;54.15;;;-0.20;71.60;;;;;;4936661;28;114804;-78
2022/12/15 14:42:01;;;;;;;119.07;47.80;;;-0.30;71.70;;;;;;4939118;28;115910;-79
2022/12/15 14:44:39;;;;;;;160.50;59.00;;;-0.30;71.70;;;;;;4933420;28;115404;-78
2022/12/15 14:47:27;;;;;;;159.88;61.67;;;-0.30;71.90;;;;;;4940820;28;115393;-78
2022/12/15 14:49:56;;;;;;;148.20;58.10;;;-0.40;72.00;;;;;;4915299;28;114923;-78
2022/12/15 14:52:38;;;;;;;155.65;56.85;;;-0.50;72.00;;;;;;4927074;28;114645;-79
2022/12/15 14:55:34;;;;;;;150.93;55.13;;;-0.50;72.20;;;;;;4909656;28;116941;-79
2022/12/15 14:58:28;;;;;;;145.45;54.17;;;-0.60;72.20;;;;;;4926224;28;114733;-78
2022/12/15 15:00:57;;;;;;;155.10;57.47;;;-0.70;72.10;;;;;;4913475;28;114599;-79
2022/12/15 15:03:38;;;;;;;170.10;60.88;;;-0.80;72.30;;;;;;4920892;28;114865;-79
2022/12/15 15:06:11;;;;;;;155.25;52.92;;;-0.90;72.50;;;;;;4926166;28;116725;-78
2022/12/15 15:08:49;;;;;;;156.07;55.97;;;-0.90;72.50;;;;;;4939596;28;115891;-79
2022/12/15 15:11:38;;;;;;;141.35;50.90;;;-1.00;72.60;;;;;;4928687;28;117624;-79
2022/12/15 15:14:29;;;;;;;147.43;53.20;;;-1.00;72.90;;;;;;4961843;28;114494;-79
2022/12/15 15:17:11;;;;;;;154.38;53.75;;;-1.20;72.90;;;;;;4942966;28;115110;-78
2022/12/15 15:19:58;;;;;;;154.57;56.80;;;-1.20;73.10;;;;;;4926669;28;114626;-79
2022/12/15 15:22:38;;;;;;;131.27;50.58;;;-1.10;73.20;;;;;;4937585;28;114512;-79